Time;durP1;ratioP1;P1;durP2;ratioP2;P2;SDS_P1;SDS_P2;PMS_P1;PMS_P2;Temp;Humidity;BMP_temperature;BMP_pressure;BME280_temperature;BME280_humidity;BME280_pressure;Samples;Min_cycle;Max_cycle;Signal;HPM_P1;HPM_P2
2021/12/28 00:01:57;;;;;;;62.67;34.45;;;;;;;;;;5113237;28;20483;-73
2021/12/28 00:04:23;;;;;;;54.97;33.85;;;;;;;;;;5114413;28;20130;-73
2021/12/28 00:06:49;;;;;;;59.88;35.13;;;;;;;;;;5113631;28;20130;-73
2021/12/28 00:09:15;;;;;;;50.00;31.65;;;;;;;;;;5114675;28;20062;-73
2021/12/28 00:11:41;;;;;;;58.47;36.40;;;;;;;;;;5114288;28;20395;-74
2021/12/28 00:14:08;;;;;;;58.70;34.75;;;;;;;;;;5114568;28;20061;-73
2021/12/28 00:17:58;;;;;;;61.95;35.70;;;;;;;;;;5113052;28;20363;-74
2021/12/28 00:19:21;;;;;;;67.22;37.28;;;;;;;;;;5114374;28;20091;-73
2021/12/28 00:21:47;;;;;;;64.07;37.25;;;;;;;;;;5114584;28;20047;-74
2021/12/28 00:24:14;;;;;;;64.38;36.15;;;;;;;;;;5114351;28;20047;-74
2021/12/28 00:26:40;;;;;;;69.32;38.22;;;;;;;;;;5114034;28;20069;-74
2021/12/28 00:29:06;;;;;;;69.63;39.67;;;;;;;;;;5113293;28;20491;-74
2021/12/28 00:31:32;;;;;;;79.22;41.33;;;;;;;;;;5113963;28;20138;-74
2021/12/28 00:33:59;;;;;;;79.78;42.03;;;;;;;;;;5114248;28;20126;-73
2021/12/28 00:36:25;;;;;;;75.30;37.55;;;;;;;;;;5112553;28;20432;-73
2021/12/28 00:38:51;;;;;;;85.50;43.75;;;;;;;;;;5113270;28;20391;-73
2021/12/28 00:41:17;;;;;;;90.80;44.58;;;;;;;;;;5114064;28;20126;-73
2021/12/28 00:43:43;;;;;;;88.65;44.22;;;;;;;;;;5113766;28;20048;-73
2021/12/28 00:46:10;;;;;;;89.30;44.67;;;;;;;;;;5114019;28;20114;-73
2021/12/28 00:48:37;;;;;;;95.85;42.75;;;;;;;;;;5095605;28;20044;-73
2021/12/28 00:51:04;;;;;;;100.72;46.30;;;;;;;;;;5112501;28;20368;-73
2021/12/28 00:53:30;;;;;;;87.55;41.28;;;;;;;;;;5113458;28;20074;-73
2021/12/28 00:55:57;;;;;;;109.93;48.13;;;;;;;;;;5113744;28;20047;-73
2021/12/28 00:58:23;;;;;;;97.78;45.45;;;;;;;;;;5113585;28;20039;-73
2021/12/28 01:00:50;;;;;;;108.72;46.30;;;;;;;;;;5113368;28;20057;-73
2021/12/28 01:03:16;;;;;;;113.70;48.20;;;;;;;;;;5113585;28;20130;-73
2021/12/28 01:05:43;;;;;;;116.13;52.15;;;;;;;;;;5113373;28;20043;-73
2021/12/28 01:08:10;;;;;;;99.55;46.55;;;;;;;;;;5113739;28;20043;-73
2021/12/28 01:10:38;;;;;;;113.40;48.20;;;;;;;;;;5113331;28;20047;-73
2021/12/28 01:13:04;;;;;;;113.22;47.08;;;;;;;;;;5112325;28;20058;-73
2021/12/28 01:15:31;;;;;;;125.32;50.42;;;;;;;;;;5112257;28;20080;-73
2021/12/28 01:17:57;;;;;;;116.63;49.63;;;;;;;;;;5113249;28;20050;-73
2021/12/28 01:20:24;;;;;;;121.57;49.53;;;;;;;;;;5113013;28;20109;-73
2021/12/28 01:22:50;;;;;;;120.93;50.10;;;;;;;;;;5112179;28;20047;-73
2021/12/28 01:25:17;;;;;;;138.02;51.80;;;;;;;;;;5112119;28;20043;-74
2021/12/28 01:27:43;;;;;;;150.55;53.58;;;;;;;;;;5113058;28;20097;-73
2021/12/28 01:30:10;;;;;;;150.77;54.53;;;;;;;;;;5113482;28;20100;-73
2021/12/28 01:32:36;;;;;;;163.75;56.00;;;;;;;;;;5113008;28;20130;-73
2021/12/28 01:35:04;;;;;;;165.88;54.72;;;;;;;;;;5113274;28;20084;-74
2021/12/28 01:37:30;;;;;;;156.57;52.67;;;;;;;;;;5112964;28;20126;-73
2021/12/28 01:39:56;;;;;;;164.77;56.53;;;;;;;;;;5113196;28;20100;-73
2021/12/28 01:42:22;;;;;;;154.38;52.75;;;;;;;;;;5112207;28;20180;-73
2021/12/28 01:44:48;;;;;;;162.32;55.05;;;;;;;;;;5112859;28;20048;-74
2021/12/28 01:47:16;;;;;;;179.07;57.65;;;;;;;;;;5113234;28;20134;-74
2021/12/28 01:49:42;;;;;;;168.82;56.70;;;;;;;;;;5112978;28;20062;-73
2021/12/28 01:52:09;;;;;;;184.70;56.53;;;6.60;99.90;;;;;;5117377;28;20047;-73
2021/12/28 01:54:34;;;;;;;172.93;55.50;;;6.60;99.90;;;;;;5116077;28;20058;-73
2021/12/28 01:57:00;;;;;;;182.97;56.73;;;6.70;99.90;;;;;;5117124;28;20118;-73
2021/12/28 01:59:26;;;;;;;184.63;52.67;;;6.70;99.90;;;;;;5117244;28;20054;-74
2021/12/28 02:01:51;;;;;;;210.07;59.27;;;6.70;99.90;;;;;;5116634;27;20508;-73
2021/12/28 02:04:27;;;;;;;187.97;54.20;;;6.70;99.90;;;;;;5117080;28;20170;-74
2021/12/28 02:06:55;;;;;;;182.80;55.83;;;6.70;99.90;;;;;;5116804;28;20126;-73
2021/12/28 02:09:21;;;;;;;184.70;55.60;;;6.80;99.90;;;;;;5117078;28;20047;-73
2021/12/28 02:11:48;;;;;;;200.90;56.70;;;6.90;99.90;;;;;;5116664;28;20048;-73
2021/12/28 02:14:14;;;;;;;171.88;52.58;;;6.80;99.90;;;;;;5116927;28;20120;-73
2021/12/28 02:16:42;;;;;;;178.30;52.90;;;6.80;99.90;;;;;;5116664;28;20086;-73
2021/12/28 02:19:10;;;;;;;179.13;53.08;;;6.80;99.90;;;;;;5116619;28;20807;-73
2021/12/28 02:21:36;;;;;;;182.40;53.08;;;;;;;;;;5116573;27;20101;-73
2021/12/28 02:24:05;;;;;;;189.68;55.10;;;;;;;;;;5116381;28;20044;-73
2021/12/28 02:26:31;;;;;;;200.02;54.55;;;;;;;;;;5116603;28;20475;-73
2021/12/28 02:28:57;;;;;;;190.45;53.85;;;;;;;;;;5116003;28;20545;-73
2021/12/28 02:31:24;;;;;;;173.48;51.72;;;;;;;;;;5116247;28;20547;-73
2021/12/28 02:33:50;;;;;;;184.63;52.20;;;;;;;;;;5116142;28;20047;-73
2021/12/28 02:36:17;;;;;;;190.85;52.58;;;;;;;;;;5116496;28;20044;-73
2021/12/28 02:38:44;;;;;;;191.63;54.83;;;;;;;;;;5114892;28;20498;-73
2021/12/28 02:41:10;;;;;;;168.25;48.65;;;;;;;;;;5115204;28;20127;-73
2021/12/28 02:43:37;;;;;;;178.75;50.83;;;;;;;;;;5116429;28;20048;-73
2021/12/28 02:46:05;;;;;;;174.05;51.55;;;;;;;;;;5114995;28;20185;-73
2021/12/28 02:48:32;;;;;;;173.85;49.63;;;;;;;;;;5114953;28;20047;-73
2021/12/28 02:51:00;;;;;;;189.68;52.25;;;;;;;;;;5115935;28;20079;-73
2021/12/28 02:53:26;;;;;;;166.88;50.83;;;;;;;;;;5116131;28;20079;-74
2021/12/28 02:55:52;;;;;;;182.75;49.78;;;;;;;;;;5115856;27;20112;-73
2021/12/28 02:58:39;;;;;;;151.75;47.40;;;;;;;;;;5114815;28;20050;-74
2021/12/28 03:01:14;;;;;;;162.15;48.88;;;;;;;;;;5115083;28;20054;-74
2021/12/28 03:03:40;;;;;;;176.88;47.00;;;;;;;;;;5115961;28;20118;-74
2021/12/28 03:06:07;;;;;;;151.63;45.75;;;;;;;;;;5115883;28;20048;-74
2021/12/28 03:08:35;;;;;;;168.30;47.28;;;;;;;;;;5116008;28;20123;-74
2021/12/28 03:11:01;;;;;;;133.23;45.80;;;;;;;;;;5115473;28;20300;-74
2021/12/28 03:13:30;;;;;;;145.18;47.40;;;;;;;;;;5115757;28;20075;-74
2021/12/28 03:15:56;;;;;;;129.32;44.92;;;;;;;;;;5115341;27;20090;-74
2021/12/28 03:18:22;;;;;;;136.13;46.92;;;;;;;;;;5114408;28;20128;-74
2021/12/28 03:20:49;;;;;;;148.27;48.95;;;;;;;;;;5115339;28;20492;-73
2021/12/28 03:23:17;;;;;;;140.80;44.27;;;;;;;;;;5115519;28;20047;-74
2021/12/28 03:25:43;;;;;;;144.97;46.10;;;;;;;;;;5115391;28;20364;-73
2021/12/28 03:28:15;;;;;;;139.40;44.63;;;;;;;;;;5115431;28;20326;-74
2021/12/28 03:30:41;;;;;;;141.05;45.83;;;;;;;;;;5115581;28;20055;-74
2021/12/28 03:33:07;;;;;;;130.40;44.00;;;;;;;;;;5113935;28;20055;-74
2021/12/28 03:35:33;;;;;;;128.45;42.97;;;;;;;;;;5115326;27;20066;-74
2021/12/28 03:37:59;;;;;;;120.20;42.10;;;;;;;;;;5114805;28;20475;-74
2021/12/28 03:40:25;;;;;;;134.82;44.65;;;;;;;;;;5114070;28;20284;-74
2021/12/28 03:42:51;;;;;;;124.68;42.83;;;;;;;;;;5114841;28;20130;-74
2021/12/28 03:45:17;;;;;;;119.27;39.63;;;;;;;;;;5114182;28;20106;-74
2021/12/28 03:47:44;;;;;;;130.60;42.43;;;;;;;;;;5114902;28;20313;-74
2021/12/28 03:50:11;;;;;;;127.70;41.80;;;;;;;;;;5114688;28;20360;-74
2021/12/28 03:52:37;;;;;;;124.00;42.15;;;;;;;;;;5113774;28;20425;-74
2021/12/28 03:55:04;;;;;;;115.70;41.60;;;;;;;;;;5114648;28;20174;-74
2021/12/28 03:57:30;;;;;;;120.67;41.87;;;;;;;;;;5114834;28;20389;-74
2021/12/28 03:59:56;;;;;;;116.65;39.78;;;;;;;;;;5114534;28;20372;-74
2021/12/28 04:02:22;;;;;;;121.93;43.70;;;;;;;;;;5114783;28;20043;-74
2021/12/28 04:04:48;;;;;;;114.60;40.20;;;;;;;;;;5114552;28;20536;-73
2021/12/28 04:07:19;;;;;;;112.93;38.58;;;;;;;;;;5114617;28;20361;-74
2021/12/28 04:09:58;;;;;;;118.93;41.05;;;;;;;;;;5114678;28;20101;-74
2021/12/28 04:12:25;;;;;;;114.77;40.67;;;;;;;;;;5114824;28;20043;-74
2021/12/28 04:14:51;;;;;;;123.43;40.10;;;;;;;;;;5114334;28;20326;-73
2021/12/28 04:17:17;;;;;;;117.07;40.00;;;;;;;;;;5114402;28;20050;-74
2021/12/28 04:19:43;;;;;;;124.30;40.65;;;;;;;;;;5114269;28;20438;-74
2021/12/28 04:22:10;;;;;;;109.13;39.75;;;;;;;;;;5112916;28;20116;-74
2021/12/28 04:24:36;;;;;;;111.47;38.63;;;;;;;;;;5114420;28;20400;-74
2021/12/28 04:27:02;;;;;;;126.28;40.13;;;;;;;;;;5114034;28;20126;-74
2021/12/28 04:29:28;;;;;;;118.05;35.97;;;;;;;;;;5114305;28;20086;-74
2021/12/28 04:31:54;;;;;;;94.97;37.28;;;;;;;;;;5113988;27;20126;-73
2021/12/28 04:34:20;;;;;;;104.57;37.17;;;;;;;;;;5114501;28;20475;-74
2021/12/28 04:36:47;;;;;;;102.38;37.85;;;;;;;;;;5114192;28;20061;-74
2021/12/28 04:39:13;;;;;;;104.65;37.00;;;;;;;;;;5113408;28;20538;-74
2021/12/28 04:41:40;;;;;;;100.43;36.07;;;;;;;;;;5113073;28;20108;-74
2021/12/28 04:44:07;;;;;;;100.72;36.53;;;;;;;;;;5113690;28;20293;-74
2021/12/28 04:46:33;;;;;;;103.38;34.40;;;;;;;;;;5113932;28;20044;-74
2021/12/28 04:48:59;;;;;;;87.80;33.80;;;;;;;;;;5095830;28;20059;-73
2021/12/28 04:51:25;;;;;;;95.05;35.00;;;;;;;;;;5113856;28;20288;-74
2021/12/28 04:53:54;;;;;;;93.40;33.63;;;;;;;;;;5113844;28;20059;-74
2021/12/28 04:56:21;;;;;;;84.17;33.70;;;;;;;;;;5112918;28;20288;-74
2021/12/28 04:58:47;;;;;;;98.32;34.25;;;;;;;;;;5113674;28;20718;-74
2021/12/28 05:01:13;;;;;;;75.63;32.67;;;;;;;;;;5113374;28;20138;-74
2021/12/28 05:03:39;;;;;;;80.33;31.80;;;;;;;;;;5112686;28;20376;-74
2021/12/28 05:06:05;;;;;;;94.80;33.30;;;;;;;;;;5113284;28;20277;-74
2021/12/28 05:08:31;;;;;;;74.90;31.33;;;;;;;;;;5112403;28;20277;-74
2021/12/28 05:10:58;;;;;;;90.40;32.83;;;;;;;;;;5113359;28;20683;-73
2021/12/28 05:13:24;;;;;;;76.50;30.30;;;;;;;;;;5113502;28;20091;-74
2021/12/28 05:15:52;;;;;;;75.23;30.97;;;;;;;;;;5113478;28;20368;-73
2021/12/28 05:18:18;;;;;;;66.57;28.63;;;;;;;;;;5113114;28;20343;-73
2021/12/28 05:20:45;;;;;;;66.37;28.33;;;;;;;;;;5113528;28;20692;-74
2021/12/28 05:23:11;;;;;;;67.23;29.70;;;;;;;;;;5111797;28;20673;-73
2021/12/28 05:25:37;;;;;;;65.73;28.77;;;;;;;;;;5111747;28;20367;-74
2021/12/28 05:28:04;;;;;;;63.93;29.50;;;;;;;;;;5113026;28;20745;-73
2021/12/28 05:30:30;;;;;;;63.00;30.17;;;;;;;;;;5113531;28;20328;-74
2021/12/28 05:32:57;;;;;;;75.20;31.03;;;;;;;;;;5113272;28;20284;-73
2021/12/28 05:35:23;;;;;;;62.00;29.70;;;;;;;;;;5112970;28;20336;-73
2021/12/28 05:37:49;;;;;;;66.30;30.30;;;;;;;;;;5113329;28;20194;-73
2021/12/28 05:40:16;;;;;;;57.20;28.30;;;;;;;;;;5112882;28;20289;-73
2021/12/28 05:42:42;;;;;;;59.33;27.67;;;;;;;;;;5112222;28;20289;-74
2021/12/28 05:45:08;;;;;;;65.17;28.77;;;;;;;;;;5112873;28;20282;-73
2021/12/28 05:47:35;;;;;;;58.23;28.13;;;;;;;;;;5113147;28;20282;-74
2021/12/28 05:50:01;;;;;;;59.00;28.73;;;;;;;;;;5113081;28;20360;-73
2021/12/28 05:52:27;;;;;;;63.80;29.10;;;;;;;;;;5113096;28;20320;-74
2021/12/28 05:54:54;;;;;;;70.00;29.20;;;;;;;;;;5112088;28;20882;-74
2021/12/28 05:57:20;;;;;;;60.80;28.27;;;;;;;;;;5111489;28;20301;-74
2021/12/28 05:59:46;;;;;;;65.83;27.83;;;;;;;;;;5113084;28;20169;-74
2021/12/28 06:02:12;;;;;;;65.87;28.90;;;;;;;;;;5112744;28;20284;-73
2021/12/28 06:04:38;;;;;;;63.67;29.93;;;;;;;;;;5113136;28;20360;-73
2021/12/28 06:07:04;;;;;;;57.73;28.30;;;;;;;;;;5112615;28;20285;-73
2021/12/28 06:09:31;;;;;;;62.83;29.00;;;;;;;;;;5112056;28;20282;-74
2021/12/28 06:11:57;;;;;;;60.97;27.70;;;;;;;;;;5112887;28;20365;-82
2021/12/28 06:14:23;;;;;;;59.33;26.90;;;;;;;;;;5112560;28;20475;-74
2021/12/28 06:16:49;;;;;;;67.30;28.70;;;;;;;;;;5112977;28;20640;-74
2021/12/28 06:19:15;;;;;;;53.60;27.67;;;;;;;;;;5111043;28;20316;-74
2021/12/28 06:21:41;;;;;;;53.43;27.00;;;;;;;;;;5113099;28;20286;-73
2021/12/28 06:24:08;;;;;;;47.43;25.20;;;;;;;;;;5112482;28;20300;-73
2021/12/28 06:26:35;;;;;;;50.53;25.90;;;;;;;;;;5112742;28;20787;-73
2021/12/28 06:29:01;;;;;;;53.70;25.93;;;;;;;;;;5112790;28;20119;-72
2021/12/28 06:31:28;;;;;;;57.43;26.13;;;;;;;;;;5111622;28;20294;-72
2021/12/28 06:33:58;;;;;;;49.03;24.13;;;;;;;;;;5112882;28;20285;-71
2021/12/28 06:36:24;;;;;;;43.07;23.07;;;;;;;;;;5112979;28;20313;-72
2021/12/28 06:38:51;;;;;;;50.53;24.03;;;;;;;;;;5116434;28;20301;-72
2021/12/28 06:41:17;;;;;;;42.00;22.43;;;;;;;;;;5116141;28;20321;-71
2021/12/28 06:43:44;;;;;;;44.40;22.20;;;;;;;;;;5116611;28;20364;-75
2021/12/28 06:46:10;;;;;;;46.60;21.97;;;;;;;;;;5116037;28;20289;-77
2021/12/28 06:48:36;;;;;;;41.07;21.43;;;;;;;;;;5116269;28;20372;-77
2021/12/28 06:51:05;;;;;;;42.83;21.17;;;;;;;;;;5116265;28;20280;-75
2021/12/28 06:53:31;;;;;;;41.33;21.47;;;;;;;;;;5115887;28;20285;-72
2021/12/28 06:55:57;;;;;;;39.33;19.73;;;;;;;;;;5116098;28;20396;-72
2021/12/28 06:58:30;;;;;;;40.80;18.43;;;;;;;;;;5115667;28;20324;-72
2021/12/28 07:00:57;;;;;;;43.80;19.77;;;;;;;;;;5115246;28;20844;-72
2021/12/28 07:03:23;;;;;;;45.60;19.77;;;;;;;;;;5114428;28;20830;-72
2021/12/28 07:05:49;;;;;;;43.63;20.00;;;;;;;;;;5116102;28;20286;-72
2021/12/28 07:08:15;;;;;;;39.00;18.60;;;;;;;;;;5115876;28;20281;-72
2021/12/28 07:10:42;;;;;;;40.17;19.87;;;;;;;;;;5116113;28;20050;-72
2021/12/28 07:13:08;;;;;;;34.00;18.63;;;;;;;;;;5115973;28;20325;-72
2021/12/28 07:15:35;;;;;;;43.30;17.97;;;;;;;;;;5115997;28;20341;-72
2021/12/28 07:18:01;;;;;;;39.40;17.73;;;;;;;;;;5114710;28;20800;-71
2021/12/28 07:20:28;;;;;;;38.07;17.47;;;;;;;;;;5115741;28;20376;-72
2021/12/28 07:22:54;;;;;;;33.13;17.10;;;;;;;;;;5115772;28;20286;-72
2021/12/28 07:25:20;;;;;;;32.83;16.40;;;;;;;;;;5115489;28;20043;-72
2021/12/28 07:27:46;;;;;;;32.37;15.60;;;;;;;;;;5115712;28;20305;-78
2021/12/28 07:30:13;;;;;;;33.10;17.02;;;;;;;;;;5115674;28;20284;-75
2021/12/28 07:32:40;;;;;;;35.67;14.37;;;;;;;;;;5115530;28;20083;-70
2021/12/28 07:35:06;;;;;;;33.37;15.63;;;;;;;;;;5115473;28;20317;-69
2021/12/28 07:37:32;;;;;;;35.53;15.00;;;;;;;;;;5111037;28;20293;-69
2021/12/28 07:39:59;;;;;;;36.28;16.23;;;;;;;;;;5097374;28;20278;-69
2021/12/28 07:42:25;;;;;;;39.43;15.13;;;;;;;;;;5094208;28;20052;-68
2021/12/28 07:44:51;;;;;;;36.67;14.40;;;;;;;;;;5094643;28;20286;-68
2021/12/28 07:47:17;;;;;;;29.23;13.00;;;;;;;;;;5092932;28;20131;-69
2021/12/28 07:49:43;;;;;;;33.37;14.03;;;;;;;;;;5097334;28;20347;-68
2021/12/28 07:52:09;;;;;;;34.90;13.80;;;;;;;;;;5093764;28;20804;-68
2021/12/28 07:54:35;;;;;;;31.57;14.00;;;;;;;;;;5094395;28;20305;-68
2021/12/28 07:57:02;;;;;;;33.03;13.43;;;;;;;;;;5094475;28;20286;-68
2021/12/28 07:59:28;;;;;;;25.80;12.83;;;;;;;;;;5093701;28;20285;-69
2021/12/28 08:01:54;;;;;;;30.23;12.10;;;;;;;;;;5093324;28;20630;-68
2021/12/28 08:04:20;;;;;;;30.30;12.50;;;;;;;;;;5093119;28;20285;-68
2021/12/28 08:06:46;;;;;;;30.13;12.23;;;;;;;;;;5094414;28;20366;-68
2021/12/28 08:09:13;;;;;;;28.63;11.77;;;;;;;;;;5093904;28;20329;-68
2021/12/28 08:11:39;;;;;;;30.30;12.17;;;;;;;;;;5094068;28;20400;-68
2021/12/28 08:14:05;;;;;;;32.00;11.57;;;;;;;;;;5094513;28;20664;-68
2021/12/28 08:16:31;;;;;;;34.33;13.43;;;7.60;99.90;;;;;;5094027;28;20817;-68
2021/12/28 08:18:57;;;;;;;28.63;10.97;;;7.50;99.90;;;;;;5093807;28;20345;-69
2021/12/28 08:21:23;;;;;;;26.90;10.33;;;7.60;99.90;;;;;;5092970;28;20325;-69
2021/12/28 08:23:49;;;;;;;27.77;10.87;;;7.70;99.90;;;;;;5094036;28;20169;-69
2021/12/28 08:26:16;;;;;;;25.07;9.93;;;7.60;99.90;;;;;;5094131;28;20334;-69
2021/12/28 08:28:42;;;;;;;28.40;10.70;;;7.70;99.90;;;;;;5093516;28;20399;-69
2021/12/28 08:31:08;;;;;;;27.07;9.70;;;7.70;99.90;;;;;;5093818;28;20434;-69
2021/12/28 08:33:34;;;;;;;28.43;10.57;;;7.70;99.90;;;;;;5093611;28;20290;-68
2021/12/28 08:36:00;;;;;;;33.07;10.33;;;7.70;99.90;;;;;;5093910;28;20128;-69
2021/12/28 08:38:26;;;;;;;25.07;9.67;;;7.70;99.90;;;;;;5091966;28;20040;-69
2021/12/28 08:40:52;;;;;;;25.77;9.90;;;7.70;99.90;;;;;;5093754;28;20117;-69
2021/12/28 08:43:18;;;;;;;26.63;11.17;;;7.70;99.90;;;;;;5092533;28;20044;-69
2021/12/28 08:45:43;;;;;;;26.70;9.80;;;7.80;99.90;;;;;;5093851;28;20281;-69
2021/12/28 08:48:13;;;;;;;23.07;10.87;;;7.80;99.90;;;;;;5093458;28;20044;-69
2021/12/28 08:50:41;;;;;;;30.43;10.77;;;7.80;99.90;;;;;;5093456;28;20044;-69
2021/12/28 08:53:06;;;;;;;20.73;9.93;;;7.80;99.90;;;;;;5093473;28;20286;-69
2021/12/28 08:55:33;;;;;;;29.43;10.60;;;7.80;99.90;;;;;;5093247;28;20297;-68
2021/12/28 08:57:58;;;;;;;34.13;11.57;;;7.90;99.90;;;;;;5093133;28;20040;-69
2021/12/28 09:00:27;;;;;;;27.07;10.90;;;8.00;99.90;;;;;;5091219;28;20283;-69
2021/12/28 09:02:55;;;;;;;27.60;11.50;;;7.90;99.90;;;;;;5093474;28;20075;-69
2021/12/28 09:05:22;;;;;;;30.67;11.53;;;7.90;99.90;;;;;;5092850;28;20766;-69
2021/12/28 09:07:48;;;;;;;30.83;11.97;;;7.90;99.90;;;;;;5093340;28;20279;-69
2021/12/28 09:10:14;;;;;;;31.63;13.37;;;8.10;99.90;;;;;;5093179;28;20293;-69
2021/12/28 09:12:40;;;;;;;27.37;10.97;;;8.00;99.90;;;;;;5092048;28;20416;-69
2021/12/28 09:15:08;;;;;;;30.73;11.80;;;7.90;99.90;;;;;;5093080;28;20343;-69
2021/12/28 09:17:34;;;;;;;33.03;12.00;;;8.00;99.90;;;;;;5092871;28;20646;-69
2021/12/28 09:20:06;;;;;;;28.17;12.13;;;8.10;99.90;;;;;;5092520;28;20294;-69
2021/12/28 09:22:31;;;;;;;28.10;13.47;;;8.00;99.90;;;;;;5092986;28;20321;-69
2021/12/28 09:24:57;;;;;;;24.97;12.03;;;8.10;99.90;;;;;;5093330;28;20306;-69
2021/12/28 09:27:23;;;;;;;26.67;12.30;;;8.00;99.90;;;;;;5092837;28;20436;-69
2021/12/28 09:29:49;;;;;;;21.50;12.20;;;8.10;99.90;;;;;;5092792;28;20373;-69
2021/12/28 09:32:15;;;;;;;32.00;13.17;;;8.00;99.90;;;;;;5092948;28;20048;-68
2021/12/28 09:34:43;;;;;;;33.50;12.07;;;8.00;99.90;;;;;;5092816;28;20400;-69
2021/12/28 09:37:09;;;;;;;29.40;14.10;;;8.10;99.90;;;;;;5092893;28;20284;-69
2021/12/28 09:39:35;;;;;;;32.77;13.23;;;8.00;99.90;;;;;;5092634;28;20689;-69
2021/12/28 09:42:02;;;;;;;31.27;13.17;;;8.10;99.90;;;;;;5074822;28;20052;-69
2021/12/28 09:44:30;;;;;;;28.33;12.70;;;8.00;99.90;;;;;;5092724;28;20053;-69
2021/12/28 09:46:57;;;;;;;30.33;13.50;;;8.10;99.90;;;;;;5092915;28;20643;-69
2021/12/28 09:49:24;;;;;;;25.07;12.47;;;8.10;99.90;;;;;;5092396;28;20848;-72
2021/12/28 09:51:50;;;;;;;22.90;12.33;;;8.10;99.90;;;;;;5092548;28;20278;-69
2021/12/28 09:54:16;;;;;;;29.23;14.27;;;8.10;99.90;;;;;;5092990;28;20286;-70
2021/12/28 09:56:42;;;;;;;28.87;12.70;;;8.10;99.90;;;;;;5092586;28;20536;-70
2021/12/28 09:59:08;;;;;;;30.63;12.23;;;8.10;99.90;;;;;;5092562;28;20055;-70
2021/12/28 10:01:34;;;;;;;23.63;12.40;;;8.20;99.90;;;;;;5092292;28;20054;-70
2021/12/28 10:04:01;;;;;;;34.80;15.10;;;;;;;;;;5092749;28;20274;-69
2021/12/28 10:06:28;;;;;;;32.93;13.40;;;8.10;99.90;;;;;;5092500;28;20494;-71
2021/12/28 10:09:12;;;;;;;32.07;13.73;;;8.00;99.90;;;;;;5092532;28;20288;-70
2021/12/28 10:11:42;;;;;;;34.93;13.73;;;8.00;99.90;;;;;;5093794;28;20294;-69
2021/12/28 10:14:13;;;;;;;28.80;13.90;;;8.10;99.90;;;;;;5096617;28;20284;-69
2021/12/28 10:17:00;;;;;;;34.13;14.93;;;8.10;99.90;;;;;;5095452;28;20293;-69
2021/12/28 10:19:41;;;;;;;31.57;15.57;;;8.10;99.90;;;;;;5094723;28;20312;-69
2021/12/28 10:22:32;;;;;;;30.23;15.23;;;8.10;99.90;;;;;;5096498;28;20621;-69
2021/12/28 10:25:09;;;;;;;29.93;16.13;;;8.10;99.90;;;;;;5096389;28;20285;-69
2021/12/28 10:27:36;;;;;;;32.03;16.57;;;8.10;99.90;;;;;;5096110;28;20286;-69
2021/12/28 10:30:24;;;;;;;35.37;16.87;;;8.10;99.90;;;;;;5096068;28;20749;-69
2021/12/28 10:33:05;;;;;;;31.27;16.00;;;8.10;99.90;;;;;;5095933;28;20289;-69
2021/12/28 10:35:40;;;;;;;34.30;16.43;;;8.10;99.90;;;;;;5096019;28;20361;-69
2021/12/28 10:38:08;;;;;;;31.25;16.25;;;8.10;99.90;;;;;;5095998;28;20298;-69
2021/12/28 10:40:33;;;;;;;32.80;17.33;;;8.10;99.90;;;;;;5095825;28;20043;-68
2021/12/28 10:43:12;;;;;;;30.47;16.57;;;8.20;99.90;;;;;;5095597;28;20347;-69
2021/12/28 10:45:43;;;;;;;31.97;17.03;;;8.20;99.90;;;;;;5094557;28;20056;-69
2021/12/28 10:48:16;;;;;;;28.30;15.13;;;8.10;99.90;;;;;;5095948;28;20281;-69
2021/12/28 10:51:01;;;;;;;28.67;17.77;;;8.20;99.90;;;;;;5095818;28;20742;-69
2021/12/28 10:53:38;;;;;;;31.08;15.43;;;8.20;99.90;;;;;;5095385;28;20634;-69
2021/12/28 10:56:09;;;;;;;28.10;15.37;;;8.20;99.90;;;;;;5095831;28;20052;-69
2021/12/28 10:58:44;;;;;;;23.77;14.07;;;8.20;99.90;;;;;;5095372;28;20294;-69
2021/12/28 11:01:15;;;;;;;26.77;15.43;;;8.20;99.90;;;;;;5095883;28;20301;-68
2021/12/28 11:03:44;;;;;;;22.20;14.77;;;8.20;99.90;;;;;;5093968;28;20051;-68
2021/12/28 11:06:11;;;;;;;25.77;15.47;;;8.20;99.90;;;;;;5095696;28;20314;-68
2021/12/28 11:08:37;;;;;;;20.30;13.20;;;8.20;99.90;;;;;;5095264;28;20270;-68
2021/12/28 11:11:08;;;;;;;18.47;13.77;;;8.20;99.90;;;;;;5095585;28;20367;-68
2021/12/28 11:13:34;;;;;;;24.47;16.30;;;8.30;99.90;;;;;;5094189;28;20297;-69
2021/12/28 11:16:01;;;;;;;22.17;13.77;;;8.30;99.90;;;;;;5095500;28;20278;-68
2021/12/28 11:18:33;;;;;;;24.17;14.63;;;;;;;;;;5093937;28;20294;-69
2021/12/28 11:21:01;;;;;;;24.10;14.07;;;;;;;;;;5095374;28;20350;-69
2021/12/28 11:23:29;;;;;;;19.17;13.80;;;;;;;;;;5094368;28;20296;-70
2021/12/28 11:26:16;;;;;;;17.13;12.80;;;;;;;;;;5095017;28;20278;-70
2021/12/28 11:28:43;;;;;;;20.40;13.43;;;;;;;;;;5093865;28;20302;-69
2021/12/28 11:31:09;;;;;;;19.77;12.57;;;;;;;;;;5094902;28;20860;-69
2021/12/28 11:33:43;;;;;;;14.27;10.93;;;;;;;;;;5094589;28;20286;-70
2021/12/28 11:36:10;;;;;;;19.07;12.63;;;;;;;;;;5095202;28;20282;-69
2021/12/28 11:38:36;;;;;;;18.37;13.20;;;;;;;;;;5093519;28;20749;-70
2021/12/28 11:41:04;;;;;;;16.00;11.33;;;;;;;;;;5094923;28;20365;-70
2021/12/28 11:43:30;;;;;;;17.57;12.47;;;;;;;;;;5094646;28;20357;-71
2021/12/28 11:45:56;;;;;;;18.20;11.90;;;;;;;;;;5093491;28;20642;-70
2021/12/28 11:48:22;;;;;;;15.50;10.73;;;;;;;;;;5094701;28;20358;-71
2021/12/28 11:50:48;;;;;;;13.43;11.07;;;;;;;;;;5094448;28;20281;-70
2021/12/28 11:53:15;;;;;;;16.27;10.87;;;;;;;;;;5094530;28;20274;-70
2021/12/28 11:55:43;;;;;;;14.87;10.67;;;;;;;;;;5093282;28;20286;-71
2021/12/28 11:58:10;;;;;;;12.77;9.53;;;;;;;;;;5094337;28;20294;-70
2021/12/28 12:00:41;;;;;;;14.97;10.67;;;;;;;;;;5094718;28;20285;-70
2021/12/28 12:03:07;;;;;;;15.10;10.37;;;;;;;;;;5076532;28;20282;-70
2021/12/28 12:05:34;;;;;;;12.83;9.63;;;;;;;;;;5094365;28;20766;-70
2021/12/28 12:08:07;;;;;;;12.80;9.77;;;;;;;;;;5094052;28;20278;-70
2021/12/28 12:10:36;;;;;;;13.33;8.90;;;;;;;;;;5094486;28;20332;-70
2021/12/28 12:13:04;;;;;;;17.13;9.77;;;;;;;;;;5094191;28;20274;-70
2021/12/28 12:15:38;;;;;;;12.43;9.07;;;;;;;;;;5094266;28;20282;-70
2021/12/28 12:18:04;;;;;;;14.13;9.63;;;;;;;;;;5094069;28;20320;-71
2021/12/28 12:20:33;;;;;;;17.07;10.10;;;;;;;;;;5094003;28;20294;-70
2021/12/28 12:23:08;;;;;;;13.53;9.00;;;;;;;;;;5093833;28;20369;-70
2021/12/28 12:25:50;;;;;;;15.52;10.15;;;;;;;;;;5093025;28;20379;-70
2021/12/28 12:28:21;;;;;;;13.50;8.87;;;;;;;;;;5093598;28;20048;-70
2021/12/28 12:30:47;;;;;;;14.83;9.53;;;;;;;;;;5094024;28;20323;-71
2021/12/28 12:33:14;;;;;;;16.97;10.23;;;;;;;;;;5093772;28;20331;-70
2021/12/28 12:35:55;;;;;;;14.53;9.33;;;;;;;;;;5092863;28;20278;-70
2021/12/28 12:38:25;;;;;;;15.87;10.00;;;;;;;;;;5093743;28;20302;-70
2021/12/28 12:41:08;;;;;;;14.97;9.50;;;;;;;;;;5093724;28;20286;-71
2021/12/28 12:43:38;;;;;;;17.17;10.90;;;;;;;;;;5093461;28;20292;-70
2021/12/28 12:46:05;;;;;;;13.53;8.93;;;;;;;;;;5093559;28;20290;-70
2021/12/28 12:48:53;;;;;;;15.87;9.47;;;;;;;;;;5093452;28;20278;-70
2021/12/28 12:51:20;;;;;;;15.53;9.40;;;;;;;;;;5092512;28;20296;-71
2021/12/28 12:53:56;;;;;;;17.67;10.43;;;;;;;;;;5093001;28;20726;-71
2021/12/28 12:56:32;;;;;;;14.20;9.70;;;;;;;;;;5093700;28;20282;-71
2021/12/28 12:59:00;;;;;;;15.07;10.50;;;;;;;;;;5092991;28;20297;-71
2021/12/28 13:01:26;;;;;;;15.40;10.20;;;;;;;;;;5093458;28;20284;-71
2021/12/28 13:03:53;;;;;;;14.53;10.47;;;;;;;;;;5093057;28;20278;-70
2021/12/28 13:06:37;;;;;;;15.63;10.47;;;;;;;;;;5093419;28;20282;-70
2021/12/28 13:09:05;;;;;;;15.80;9.90;;;;;;;;;;5093078;28;20297;-71
2021/12/28 13:11:32;;;;;;;15.27;10.10;;;;;;;;;;5093457;28;20043;-71
2021/12/28 13:13:58;;;;;;;13.70;9.30;;;;;;;;;;5091913;28;20601;-71
2021/12/28 13:16:24;;;;;;;12.43;9.20;;;;;;;;;;5093198;28;20860;-71
2021/12/28 13:18:51;;;;;;;18.73;9.90;;;;;;;;;;5092737;28;20324;-71
2021/12/28 13:21:21;;;;;;;16.77;10.00;;;;;;;;;;5093312;28;20365;-71
2021/12/28 13:24:06;;;;;;;14.13;10.00;;;;;;;;;;5092905;28;20282;-71
2021/12/28 13:27:05;;;;;;;15.52;10.88;;;;;;;;;;5092933;28;20830;-71
2021/12/28 13:29:32;;;;;;;15.17;10.57;;;;;;;;;;5069541;28;20048;-71
2021/12/28 13:32:17;;;;;;;13.57;9.60;;;;;;;;;;5092971;28;20292;-71
2021/12/28 13:35:02;;;;;;;13.40;9.00;;;;;;;;;;5093021;28;20349;-71
2021/12/28 13:37:39;;;;;;;14.33;8.93;;;;;;;;;;5092968;28;20047;-71
2021/12/28 13:40:10;;;;;;;14.67;9.77;;;;;;;;;;5092201;28;20650;-71
2021/12/28 13:42:37;;;;;;;15.50;9.90;;;;;;;;;;5093084;28;20286;-70
2021/12/28 13:45:04;;;;;;;12.77;9.57;;;;;;;;;;5092597;28;20319;-71
2021/12/28 13:47:30;;;;;;;13.77;9.73;;;;;;;;;;5096182;28;20402;-70
2021/12/28 13:50:07;;;;;;;14.00;9.30;;;;;;;;;;5096792;28;20274;-71
2021/12/28 13:52:40;;;;;;;13.67;9.40;;;;;;;;;;5097134;28;20278;-70